Airfield :
LOGIN :

Register | Disclaimer

   EN    FR    IT 

 










Legend :    VFR   Marginal VFR   IFR   Intensive IFR   Very Intensive IFR
Visi :
Ceiling :
>= 8 km
>= 3000ft
5 to 8 km
1000 to 3000 ft
1500m to 5 km
500 to 1000 ft
800 to 1500m
200 to 500 ft
< 800m
< 200 ft
Symbols :   Thunderstorms  Fog  Heavy snow  Heavy precipitations  Wind > 20 kt
SIGMETs :     Misc.  Thunderstorms  Icing  Turbulence  Mountain Waves  Volcanic Ashes






- Airport Elevation : 2776 ft
- IATA code : VLL


LEVD - Valladolid

CURRENT METAR :
  • 231930Z 25022KT 9999 OVC007 10/10 Q1004

EXPIRED METARs :
  • 231900Z 25023KT 9999 OVC006 10/09 Q1004
  • 231830Z 24022KT 6000 -DZ OVC005 10/09 Q1004
  • 231816Z 24021KT 4000 -DZ OVC005 10/09 Q1004
  • 231800Z 24022KT 8000 -DZ OVC005 09/09 Q1004
  • 231730Z 24024G34KT 8000 -DZ OVC007 09/08 Q1004
  • 231700Z 23021KT 9000 OVC007 09/08 Q1004

TAF TAF LEVD
Valid from the 23 at 15:00 until the 24 at 15:00 UTC


231400Z 2315/2415 24018KT 9999 SCT020 TX08/2415Z TN03/2406Z
PROB40
TEMPO 2315/2321 3000 RA BKN010
TEMPO 2315/2322 24023G33KT
PROB40
TEMPO 2316/2320 24033G43KT



MET'MAP, your aeronautical weather chart ! - Copyright ORBIFLY December 2007 - Disclaimer

ORBIFLY MET'MAP TEAM :

Programming & Development : Alexandra Zaïnal
Concept & original design : Baudouin d'Aumeries
Assistance for programming : Marc-Olivier Méhu
Technical & hardware support : Manuel Goepfert

Contact : metmap@orbifly.com




SOURCES & CREDITS :

   NOAA